This is the latest recevied weather packets stored in our database for station/object YO3IEZ-WX. If no packets are shown the sender has not sent any weather packets the latest 10 day(s).
| Time | Temp. | Humidity | Pressure | Rain* | Wind** | Luminosity | Snow |
|---|---|---|---|---|---|---|---|
| 1778264181 | 22.22° C | 68% | 1003.4 hPa | 0 mm | - | 0 W/m² | - |
| 1778263255 | 22.22° C | 68% | 1003.3 hPa | 0 mm | - | 0 W/m² | - |
| 1778259645 | 23.33° C | 61% | 1002.8 hPa | 0 mm | - | 19 W/m² | - |
| 1778254253 | 25.56° C | 48% | 1002.9 hPa | 0 mm | - | 155 W/m² | - |
| 1778249750 | 26.67° C | 48% | 1003.4 hPa | 0 mm | - | 390 W/m² | - |
| 1778238052 | 26.67° C | 48% | 1004.7 hPa | 0 mm | - | 598 W/m² | - |
| 1778229051 | 24.44° C | 54% | 1005.6 hPa | 0 mm | - | 754 W/m² | - |
| 1778214659 | 15° C | 83% | 1005.6 hPa | 0 mm | - | 79 W/m² | - |
| 1778170553 | 25° C | 45% | 1004 hPa | 0 mm | - | 76 W/m² | - |
| 1778166060 | 26.11° C | 41% | 1004.2 hPa | 0 mm | - | 385 W/m² | - |
| 1778160648 | 24.44° C | 46% | 1004.6 hPa | 0 mm | - | 503 W/m² | - |
| 1778157056 | 25° C | 44% | 1005.1 hPa | 0 mm | - | 738 W/m² | - |
| 1778156158 | 25° C | 46% | 1005.2 hPa | 0 mm | - | 747 W/m² | - |
| 1778154351 | 23.89° C | 46% | 1005.4 hPa | 0 mm | - | 394 W/m² | - |
| 1778151662 | 23.33° C | 44% | 1005.5 hPa | 0 mm | - | 745 W/m² | - |
| 1778146243 | 21.67° C | 42% | 1006.1 hPa | 0 mm | - | 821 W/m² | - |
| 1778142653 | 20.56° C | 46% | 1006 hPa | 0 mm | - | 768 W/m² | - |
| 1778141750 | 20.56° C | 46% | 1006 hPa | 0 mm | - | 712 W/m² | - |
| 1778134547 | 16.11° C | 61% | 1005.9 hPa | 0 mm | - | 429 W/m² | - |
| 1778131851 | 14.44° C | 68% | 1006 hPa | 0 mm | - | 315 W/m² | - |
| 1778130949 | 13.33° C | 70% | 1006 hPa | 0 mm | - | 276 W/m² | - |
| 1778130050 | 12.78° C | 72% | 1006 hPa | 0 mm | - | 339 W/m² | - |
| 1778129148 | 12.22° C | 74% | 1006 hPa | 0 mm | - | 271 W/m² | - |
| 1778126445 | 11.67° C | 77% | 1005.6 hPa | 0 mm | - | 40 W/m² | - |
| 1778125558 | 11.11° C | 77% | 1005.7 hPa | 0 mm | - | 47 W/m² | - |
* Rain latest hour (hover to see other rain measurements)
** Current wind speed in m/s (hover to see current wind gust speed)